createdAt,value
2018-06-23T00:00:23.956Z,5.70
2018-06-23T00:02:58.979Z,7.47
2018-06-23T00:05:34.306Z,5.40
2018-06-23T00:08:09.548Z,5.77
2018-06-23T00:10:44.592Z,5.73
2018-06-23T00:13:19.736Z,6.17
2018-06-23T00:15:54.672Z,6.73
2018-06-23T00:18:29.524Z,6.00
2018-06-23T00:21:04.442Z,5.60
2018-06-23T00:23:39.270Z,6.20
2018-06-23T00:26:19.414Z,6.00
2018-06-23T00:28:54.626Z,6.07
2018-06-23T00:31:29.510Z,5.77
2018-06-23T00:34:04.582Z,5.70
2018-06-23T00:36:39.923Z,6.20
2018-06-23T00:39:15.255Z,6.80
2018-06-23T00:41:50.345Z,6.90
2018-06-23T00:44:25.092Z,5.80
2018-06-23T00:47:00.175Z,6.27
2018-06-23T00:49:35.251Z,6.03
2018-06-23T00:52:10.539Z,7.07
2018-06-23T00:54:45.289Z,6.53
2018-06-23T00:57:20.271Z,5.90
2018-06-23T00:59:55.307Z,7.13
2018-06-23T01:02:30.219Z,6.97
2018-06-23T01:05:05.384Z,6.93
2018-06-23T01:07:40.114Z,7.37
2018-06-23T01:10:15.066Z,5.53
2018-06-23T01:12:50.048Z,6.57
2018-06-23T01:15:24.824Z,6.67
2018-06-23T01:17:59.782Z,6.30
2018-06-23T01:20:34.743Z,7.03
2018-06-23T01:23:09.578Z,7.30
2018-06-23T01:25:44.632Z,8.03
2018-06-23T01:28:19.863Z,7.50
2018-06-23T01:30:54.730Z,6.27
2018-06-23T01:33:29.229Z,6.50
2018-06-23T01:36:04.243Z,6.80
2018-06-23T01:38:39.094Z,6.60
2018-06-23T01:41:14.360Z,6.73
2018-06-23T01:43:49.071Z,6.47
2018-06-23T01:46:23.983Z,6.80
2018-06-23T01:48:58.954Z,6.50
2018-06-23T01:51:33.905Z,6.60
2018-06-23T01:54:08.685Z,6.50
2018-06-23T01:56:43.614Z,5.70
2018-06-23T01:59:18.374Z,5.83
2018-06-23T02:01:53.359Z,6.23
2018-06-23T02:04:28.308Z,6.20
2018-06-23T02:07:03.127Z,5.10
2018-06-23T02:09:38.233Z,6.67
2018-06-23T02:12:13.156Z,6.20
2018-06-23T02:14:53.314Z,6.70
2018-06-23T02:17:33.647Z,5.37
2018-06-23T02:20:13.982Z,5.60
2018-06-23T02:22:54.430Z,4.60
2018-06-23T02:25:34.669Z,6.20
2018-06-23T02:28:14.533Z,6.00
2018-06-23T02:30:55.301Z,5.57
2018-06-23T02:33:40.292Z,5.63
2018-06-23T02:36:15.341Z,5.80
2018-06-23T02:38:50.709Z,5.47
2018-06-23T02:41:31.385Z,6.40
2018-06-23T02:44:06.627Z,6.10
2018-06-23T02:46:41.418Z,5.57
2018-06-23T02:49:16.333Z,5.53
2018-06-23T02:51:51.239Z,5.97
2018-06-23T02:54:26.064Z,6.17
2018-06-23T02:57:00.867Z,6.00
2018-06-23T02:59:35.660Z,5.90
2018-06-23T03:02:10.791Z,6.30
2018-06-23T03:04:45.723Z,5.77
2018-06-23T03:07:20.819Z,5.73
2018-06-23T03:09:55.684Z,7.43
2018-06-23T03:12:30.146Z,5.77
2018-06-23T03:15:05.135Z,6.37
2018-06-23T03:17:39.979Z,6.83
2018-06-23T03:20:14.873Z,5.33
2018-06-23T03:22:49.632Z,5.90
2018-06-23T03:25:24.467Z,6.50
2018-06-23T03:27:59.365Z,6.10
2018-06-23T03:30:34.647Z,6.07
2018-06-23T03:33:09.658Z,6.27
2018-06-23T03:35:44.581Z,6.27
2018-06-23T03:38:19.394Z,6.23
2018-06-23T03:40:54.357Z,6.60
2018-06-23T03:43:29.296Z,7.50
2018-06-23T03:46:04.094Z,6.60
2018-06-23T03:48:39.162Z,6.40
2018-06-23T03:51:14.193Z,6.57
2018-06-23T03:53:49.078Z,6.80
2018-06-23T03:56:24.409Z,6.67
2018-06-23T03:58:59.396Z,8.10
2018-06-23T04:01:35.066Z,7.00
2018-06-23T04:04:10.104Z,7.73
2018-06-23T04:06:45.230Z,7.60
2018-06-23T04:09:20.354Z,6.73
2018-06-23T04:11:54.722Z,6.90
2018-06-23T04:14:29.737Z,7.50
2018-06-23T04:17:04.698Z,8.00
2018-06-23T04:19:39.754Z,7.30
2018-06-23T04:22:14.701Z,8.70
2018-06-23T04:24:49.419Z,7.77
2018-06-23T04:27:24.330Z,8.17
2018-06-23T04:29:59.106Z,8.03
2018-06-23T04:32:33.992Z,8.90
2018-06-23T04:35:08.900Z,7.50
2018-06-23T04:37:43.891Z,7.87
2018-06-23T04:40:19.069Z,7.30
2018-06-23T04:42:54.504Z,7.30
2018-06-23T04:45:29.621Z,7.20
2018-06-23T04:48:04.427Z,7.70
2018-06-23T04:50:39.568Z,7.60
2018-06-23T04:53:14.645Z,7.00
2018-06-23T04:55:51.576Z,7.70
2018-06-23T04:58:26.550Z,7.43
2018-06-23T05:01:02.579Z,6.57
2018-06-23T05:03:38.060Z,6.93
2018-06-23T05:06:13.161Z,7.80
2018-06-23T05:08:48.152Z,6.40
2018-06-23T05:11:22.989Z,7.47
2018-06-23T05:13:57.971Z,7.33
2018-06-23T05:16:33.622Z,7.00
2018-06-23T05:19:08.606Z,7.13
2018-06-23T05:21:43.956Z,7.07
2018-06-23T05:24:19.056Z,7.90
2018-06-23T05:26:54.181Z,6.37
2018-06-23T05:29:29.248Z,6.70
2018-06-23T05:32:04.355Z,6.00
2018-06-23T05:34:39.425Z,6.77
2018-06-23T05:37:14.423Z,6.40
2018-06-23T05:39:49.445Z,6.60
2018-06-23T05:42:24.777Z,5.57
2018-06-23T05:45:00.519Z,5.97
2018-06-23T05:47:35.685Z,6.10
2018-06-23T05:50:10.807Z,7.50
2018-06-23T05:52:45.816Z,6.17
2018-06-23T05:55:20.646Z,6.80
2018-06-23T05:57:55.579Z,7.10
2018-06-23T06:00:30.918Z,6.00
2018-06-23T06:03:06.770Z,6.00
2018-06-23T06:05:41.714Z,6.60
2018-06-23T06:08:17.459Z,6.07
2018-06-23T06:10:52.493Z,6.77
2018-06-23T06:13:27.423Z,6.77
2018-06-23T06:16:02.467Z,5.97
2018-06-23T06:18:37.430Z,6.57
2018-06-23T06:21:12.428Z,5.93
2018-06-23T06:23:47.594Z,6.70
2018-06-23T06:26:23.061Z,6.27
2018-06-23T06:28:57.881Z,6.70
2018-06-23T06:31:32.779Z,6.60
2018-06-23T06:34:07.972Z,6.20
2018-06-23T06:36:42.492Z,5.60
2018-06-23T06:39:17.624Z,6.40
2018-06-23T06:41:52.614Z,6.43
2018-06-23T06:44:27.751Z,7.20
2018-06-23T06:47:02.766Z,7.07
2018-06-23T06:49:37.334Z,7.50
2018-06-23T06:52:12.435Z,7.23
2018-06-23T06:54:47.224Z,6.87
2018-06-23T06:57:23.279Z,7.63
2018-06-23T07:00:03.773Z,6.73
2018-06-23T07:02:39.583Z,6.23
2018-06-23T07:05:14.809Z,6.03
2018-06-23T07:07:52.475Z,7.30
2018-06-23T07:10:34.226Z,5.80
2018-06-23T07:13:11.668Z,5.90
2018-06-23T07:15:48.513Z,5.60
2018-06-23T07:18:24.433Z,5.87
2018-06-23T07:20:59.987Z,6.00
2018-06-23T07:23:42.054Z,5.93
2018-06-23T07:26:17.272Z,6.47
2018-06-23T07:28:53.649Z,5.70
2018-06-23T07:31:29.602Z,6.33
2018-06-23T07:34:05.425Z,5.80
2018-06-23T07:36:40.863Z,5.97
2018-06-23T07:39:16.347Z,6.60
2018-06-23T07:41:52.488Z,7.13
2018-06-23T07:44:27.893Z,6.23
2018-06-23T07:47:03.229Z,6.47
2018-06-23T07:49:38.280Z,5.67
2018-06-23T07:52:13.211Z,6.90
2018-06-23T07:54:48.470Z,7.40
2018-06-23T07:57:23.539Z,7.30
2018-06-23T07:59:58.792Z,6.30
2018-06-23T08:02:33.858Z,6.50
2018-06-23T08:05:09.104Z,6.30
2018-06-23T08:07:44.112Z,6.77
2018-06-23T08:10:19.350Z,6.40
2018-06-23T08:12:54.437Z,7.27
2018-06-23T08:15:29.547Z,6.90
2018-06-23T08:18:05.399Z,6.63
2018-06-23T08:20:40.629Z,7.63
2018-06-23T08:23:15.586Z,6.30
2018-06-23T08:25:50.779Z,6.50
2018-06-23T08:28:25.819Z,6.90
2018-06-23T08:31:00.716Z,7.03
2018-06-23T08:33:36.331Z,7.00
2018-06-23T08:36:11.294Z,6.90
2018-06-23T08:38:46.560Z,6.90
2018-06-23T08:41:21.504Z,7.40
2018-06-23T08:43:56.459Z,6.53
2018-06-23T08:46:31.975Z,6.70
2018-06-23T08:49:07.258Z,6.17
2018-06-23T08:51:42.526Z,5.63
2018-06-23T08:54:17.555Z,5.67
2018-06-23T08:56:52.467Z,6.27
2018-06-23T08:59:27.820Z,6.50
2018-06-23T09:02:03.032Z,5.93
2018-06-23T09:04:38.295Z,6.40
2018-06-23T09:07:13.196Z,6.40
2018-06-23T09:09:48.406Z,5.83
2018-06-23T09:12:23.244Z,5.47
2018-06-23T09:14:58.646Z,5.73
2018-06-23T09:17:33.983Z,4.50
2018-06-23T09:20:09.120Z,5.40
2018-06-23T09:22:44.052Z,4.87
2018-06-23T09:25:19.113Z,5.20
2018-06-23T09:27:54.205Z,5.40
2018-06-23T09:30:29.015Z,5.23
2018-06-23T09:33:04.191Z,5.60
2018-06-23T09:35:39.448Z,5.40
2018-06-23T09:38:14.590Z,5.17
2018-06-23T09:40:49.560Z,5.37
2018-06-23T09:43:24.326Z,4.73
2018-06-23T09:45:59.878Z,5.43
2018-06-23T09:48:35.096Z,4.07
2018-06-23T09:51:09.934Z,5.17
2018-06-23T09:53:45.271Z,5.50
2018-06-23T09:56:20.435Z,4.77
2018-06-23T09:58:55.325Z,4.43
2018-06-23T10:01:30.448Z,4.97
2018-06-23T10:04:05.478Z,4.73
2018-06-23T10:06:40.362Z,5.00
2018-06-23T10:09:15.433Z,5.30
2018-06-23T10:11:50.542Z,4.90
2018-06-23T10:14:25.600Z,4.87
2018-06-23T10:17:00.735Z,4.70
2018-06-23T10:19:35.803Z,5.20
2018-06-23T10:22:10.766Z,5.20
2018-06-23T10:24:45.645Z,4.80
2018-06-23T10:27:21.116Z,4.73
2018-06-23T10:29:56.283Z,4.57
2018-06-23T10:32:31.854Z,5.00
2018-06-23T10:35:07.277Z,4.80
2018-06-23T10:37:42.583Z,5.40
2018-06-23T10:40:17.687Z,4.60
2018-06-23T10:42:52.594Z,4.70
2018-06-23T10:45:27.809Z,4.70
2018-06-23T10:48:02.951Z,5.00
2018-06-23T10:50:37.898Z,4.70
2018-06-23T10:53:13.313Z,3.93
2018-06-23T10:55:49.874Z,3.87
2018-06-23T10:58:24.760Z,4.10
2018-06-23T11:00:59.806Z,4.40
2018-06-23T11:03:35.013Z,3.63
2018-06-23T11:06:10.331Z,3.50
2018-06-23T11:08:45.231Z,3.40
2018-06-23T11:11:20.258Z,3.70
2018-06-23T11:13:55.443Z,3.10
2018-06-23T11:16:30.172Z,3.93
2018-06-23T11:19:05.381Z,4.63
2018-06-23T11:21:40.559Z,4.27
2018-06-23T11:24:16.189Z,3.70
2018-06-23T11:26:51.373Z,4.10
2018-06-23T11:29:26.473Z,3.87
2018-06-23T11:32:01.561Z,4.30
2018-06-23T11:34:37.929Z,3.90
2018-06-23T11:37:12.646Z,4.40
2018-06-23T11:39:47.529Z,4.10
2018-06-23T11:42:22.554Z,4.17
2018-06-23T11:44:57.622Z,4.70
2018-06-23T11:47:32.782Z,4.43
2018-06-23T11:50:07.652Z,5.30
2018-06-23T11:52:42.692Z,5.33
2018-06-23T11:55:17.754Z,6.40
2018-06-23T11:57:52.860Z,5.10
2018-06-23T12:00:27.833Z,5.20
2018-06-23T12:03:03.084Z,4.40
2018-06-23T12:05:37.800Z,4.90
2018-06-23T12:08:13.254Z,4.73
2018-06-23T12:10:48.093Z,5.13
2018-06-23T12:13:22.960Z,5.47
2018-06-23T12:15:58.144Z,5.30
2018-06-23T12:18:33.760Z,5.20
2018-06-23T12:21:08.523Z,6.43
2018-06-23T12:23:43.469Z,5.53
2018-06-23T12:26:18.452Z,6.07
2018-06-23T12:28:54.036Z,5.83
2018-06-23T12:31:29.452Z,6.37
2018-06-23T12:34:04.219Z,5.60
2018-06-23T12:36:39.175Z,6.00
2018-06-23T12:39:14.036Z,5.70
2018-06-23T12:41:49.058Z,5.33
2018-06-23T12:44:24.041Z,5.37
2018-06-23T12:46:58.941Z,5.87
2018-06-23T12:49:33.352Z,6.33
2018-06-23T12:52:08.807Z,5.70
2018-06-23T12:54:43.596Z,6.53
2018-06-23T12:57:18.407Z,5.77
2018-06-23T12:59:53.334Z,5.60
2018-06-23T13:02:28.476Z,5.30
2018-06-23T13:05:03.790Z,5.63
2018-06-23T13:07:38.598Z,5.60
2018-06-23T13:10:13.912Z,5.73
2018-06-23T13:12:48.820Z,5.57
2018-06-23T13:15:24.054Z,5.63
2018-06-23T13:17:59.255Z,5.57
2018-06-23T13:20:34.364Z,6.10
2018-06-23T13:23:09.397Z,6.83
2018-06-23T13:25:44.474Z,5.60
2018-06-23T13:28:19.593Z,5.50
2018-06-23T13:30:54.503Z,5.80
2018-06-23T13:33:29.711Z,5.57
2018-06-23T13:36:05.146Z,5.40
2018-06-23T13:38:39.896Z,4.90
2018-06-23T13:41:14.981Z,5.83
2018-06-23T13:43:50.166Z,5.50
2018-06-23T13:46:25.064Z,5.57
2018-06-23T13:48:59.595Z,6.53
2018-06-23T13:51:34.791Z,5.87
2018-06-23T13:54:10.135Z,6.40
2018-06-23T13:56:45.095Z,6.40
2018-06-23T13:59:20.499Z,6.03
2018-06-23T14:01:55.361Z,5.70
2018-06-23T14:04:30.130Z,5.83
2018-06-23T14:07:05.140Z,5.47
2018-06-23T14:09:39.769Z,5.70
2018-06-23T14:12:14.895Z,4.67
2018-06-23T14:14:49.942Z,5.13
2018-06-23T14:17:24.969Z,5.30
2018-06-23T14:20:00.102Z,5.90
2018-06-23T14:22:35.234Z,5.73
2018-06-23T14:25:10.243Z,5.50
2018-06-23T14:27:45.483Z,5.87
2018-06-23T14:30:20.199Z,5.40
2018-06-23T14:32:55.148Z,4.40
2018-06-23T14:35:30.508Z,3.73
2018-06-23T14:38:13.087Z,3.63
2018-06-23T14:40:48.684Z,5.90
2018-06-23T14:43:23.403Z,5.60
2018-06-23T14:45:58.483Z,6.10
2018-06-23T14:48:33.745Z,7.00
2018-06-23T14:51:08.590Z,5.97
2018-06-23T14:53:43.472Z,6.83
2018-06-23T14:56:18.728Z,6.30
2018-06-23T14:58:53.791Z,6.00
2018-06-23T15:01:28.784Z,6.40
2018-06-23T15:04:05.475Z,6.70
2018-06-23T15:06:41.071Z,6.27
2018-06-23T15:09:27.126Z,6.07
2018-06-23T15:12:13.479Z,6.40
2018-06-23T15:14:48.528Z,5.70
2018-06-23T15:17:23.375Z,5.50
2018-06-23T15:19:58.202Z,7.20
2018-06-23T15:22:33.237Z,6.10
2018-06-23T15:25:08.421Z,7.70
2018-06-23T15:27:43.579Z,6.97
2018-06-23T15:30:18.695Z,6.27
2018-06-23T15:32:53.874Z,4.97
2018-06-23T15:35:28.952Z,4.90
2018-06-23T15:38:03.919Z,5.40
2018-06-23T15:40:39.681Z,4.80
2018-06-23T15:43:14.890Z,4.53
2018-06-23T15:45:50.093Z,4.20
2018-06-23T15:48:25.241Z,3.70
2018-06-23T15:51:00.471Z,3.63
2018-06-23T15:53:35.276Z,3.73
2018-06-23T15:56:10.470Z,3.90
2018-06-23T15:58:45.594Z,3.70
2018-06-23T16:01:20.598Z,3.60
2018-06-23T16:03:55.939Z,4.30
2018-06-23T16:06:30.879Z,4.07
2018-06-23T16:09:09.639Z,4.47
2018-06-23T16:11:44.891Z,4.40
2018-06-23T16:14:20.016Z,3.87
2018-06-23T16:16:54.914Z,4.00
2018-06-23T16:19:29.865Z,4.00
2018-06-23T16:22:04.976Z,3.77
2018-06-23T16:24:40.206Z,4.07
2018-06-23T16:27:15.430Z,4.03
2018-06-23T16:29:50.417Z,4.80
2018-06-23T16:32:25.434Z,4.40
2018-06-23T16:35:00.495Z,3.77
2018-06-23T16:37:35.981Z,3.20
2018-06-23T16:40:10.992Z,4.00
2018-06-23T16:42:46.281Z,3.30
2018-06-23T16:45:21.255Z,3.73
2018-06-23T16:47:56.290Z,4.90
2018-06-23T16:50:31.314Z,4.13
2018-06-23T16:53:06.401Z,4.60
2018-06-23T16:55:41.966Z,4.77
2018-06-23T16:58:17.149Z,6.43
2018-06-23T17:00:52.919Z,6.40
2018-06-23T17:03:28.415Z,5.90
2018-06-23T17:06:03.674Z,4.90
2018-06-23T17:08:38.776Z,5.13
2018-06-23T17:11:19.311Z,5.00
2018-06-23T17:13:54.789Z,5.40
2018-06-23T17:16:29.994Z,6.70
2018-06-23T17:19:10.236Z,6.67
2018-06-23T17:21:45.902Z,7.43
2018-06-23T17:24:21.379Z,6.70
2018-06-23T17:26:56.750Z,6.97
2018-06-23T17:29:32.061Z,6.60
2018-06-23T17:32:07.302Z,6.60
2018-06-23T17:34:42.240Z,6.80
2018-06-23T17:37:17.676Z,6.70
2018-06-23T17:39:53.002Z,5.50
2018-06-23T17:42:29.016Z,5.30
2018-06-23T17:45:04.511Z,4.87
2018-06-23T17:47:39.800Z,4.63
2018-06-23T17:50:14.789Z,4.77
2018-06-23T17:52:49.741Z,5.10
2018-06-23T17:55:24.679Z,4.60
2018-06-23T17:57:59.834Z,3.90
2018-06-23T18:00:35.224Z,4.00
2018-06-23T18:03:10.113Z,4.70
2018-06-23T18:05:45.105Z,5.37
2018-06-23T18:08:20.458Z,5.53
2018-06-23T18:10:55.478Z,5.07
2018-06-23T18:13:30.953Z,4.93
2018-06-23T18:16:06.257Z,6.00
2018-06-23T18:18:41.698Z,6.13
2018-06-23T18:21:16.657Z,5.57
2018-06-23T18:23:51.568Z,5.90
2018-06-23T18:26:26.626Z,5.17
2018-06-23T18:29:02.343Z,5.67
2018-06-23T18:31:37.337Z,5.60
2018-06-23T18:34:12.820Z,5.50
2018-06-23T18:36:47.536Z,5.13
2018-06-23T18:39:22.506Z,5.40
2018-06-23T18:41:57.992Z,5.50
2018-06-23T18:44:32.851Z,5.23
2018-06-23T18:47:07.766Z,5.30
2018-06-23T18:49:42.869Z,5.30
2018-06-23T18:52:17.876Z,5.30
2018-06-23T18:54:53.146Z,5.60
2018-06-23T18:57:28.121Z,5.20
2018-06-23T19:00:04.498Z,5.37
2018-06-23T19:02:39.670Z,5.93
2018-06-23T19:05:14.826Z,5.40
2018-06-23T19:07:49.859Z,5.40
2018-06-23T19:10:24.421Z,5.40
2018-06-23T19:12:59.976Z,5.63
2018-06-23T19:15:35.466Z,5.80
2018-06-23T19:18:10.952Z,5.40
2018-06-23T19:20:45.974Z,6.13
2018-06-23T19:23:21.011Z,5.97
2018-06-23T19:25:56.250Z,6.00
2018-06-23T19:28:31.958Z,5.77
2018-06-23T19:31:07.076Z,7.33
2018-06-23T19:33:42.900Z,6.40
2018-06-23T19:36:18.093Z,6.10
2018-06-23T19:38:53.168Z,6.50
2018-06-23T19:41:29.296Z,6.40
2018-06-23T19:44:04.680Z,6.07
2018-06-23T19:46:40.058Z,6.30
2018-06-23T19:49:15.309Z,6.03
2018-06-23T19:51:50.510Z,6.70
2018-06-23T19:54:26.000Z,6.90
2018-06-23T19:57:01.035Z,5.97
2018-06-23T19:59:36.328Z,6.50
2018-06-23T20:02:11.530Z,5.60
2018-06-23T20:04:46.395Z,5.77
2018-06-23T20:07:28.296Z,5.53
2018-06-23T20:10:03.431Z,5.73
2018-06-23T20:12:38.230Z,5.97
2018-06-23T20:15:13.713Z,7.27
2018-06-23T20:17:48.959Z,5.73
2018-06-23T20:20:24.229Z,6.77
2018-06-23T20:22:59.514Z,7.23
2018-06-23T20:25:34.495Z,6.60
2018-06-23T20:28:09.498Z,7.30
2018-06-23T20:30:44.506Z,6.50
2018-06-23T20:33:19.668Z,7.13
2018-06-23T20:36:01.185Z,6.00
2018-06-23T20:38:36.147Z,7.07
2018-06-23T20:41:11.265Z,7.53
2018-06-23T20:43:46.867Z,6.53
2018-06-23T20:46:21.813Z,6.80
2018-06-23T20:48:57.734Z,6.60
2018-06-23T20:51:32.553Z,7.20
2018-06-23T20:54:07.942Z,7.27
2018-06-23T20:56:43.791Z,6.47
2018-06-23T20:59:18.848Z,6.60
2018-06-23T21:01:54.475Z,6.63
2018-06-23T21:04:29.752Z,6.93
2018-06-23T21:07:05.049Z,6.73
2018-06-23T21:09:40.556Z,6.90
2018-06-23T21:12:16.337Z,7.10
2018-06-23T21:14:51.325Z,7.47
2018-06-23T21:17:26.704Z,7.87
2018-06-23T21:20:01.867Z,7.07
2018-06-23T21:22:37.209Z,7.53
2018-06-23T21:25:12.075Z,7.13
2018-06-23T21:27:47.328Z,8.27
2018-06-23T21:30:22.309Z,7.10
2018-06-23T21:32:57.585Z,6.87
2018-06-23T21:35:32.630Z,7.93
2018-06-23T21:38:09.279Z,7.80
2018-06-23T21:40:44.915Z,7.57
2018-06-23T21:43:20.092Z,7.40
2018-06-23T21:45:55.073Z,8.27
2018-06-23T21:48:30.835Z,8.13
2018-06-23T21:51:06.342Z,8.63
2018-06-23T21:53:41.369Z,8.43
2018-06-23T21:56:16.407Z,9.10
2018-06-23T21:58:51.657Z,8.73
2018-06-23T22:01:26.124Z,8.63
2018-06-23T22:04:01.220Z,8.90
2018-06-23T22:06:36.637Z,8.07
2018-06-23T22:09:12.455Z,8.07
2018-06-23T22:11:47.786Z,7.80
2018-06-23T22:14:23.109Z,8.87
2018-06-23T22:16:57.872Z,9.30
2018-06-23T22:19:32.388Z,9.10
2018-06-23T22:22:07.784Z,8.77
2018-06-23T22:24:42.661Z,8.40
2018-06-23T22:27:18.182Z,8.37
2018-06-23T22:29:53.394Z,9.60
2018-06-23T22:32:28.858Z,9.83
2018-06-23T22:35:04.619Z,10.40
2018-06-23T22:37:40.121Z,10.20
2018-06-23T22:40:15.284Z,10.50
2018-06-23T22:42:50.545Z,9.80
2018-06-23T22:45:25.346Z,9.90
2018-06-23T22:48:00.688Z,9.93
2018-06-23T22:50:35.744Z,10.10
2018-06-23T22:53:10.544Z,10.07
2018-06-23T22:55:45.701Z,9.90
2018-06-23T22:58:21.805Z,10.07
2018-06-23T23:00:56.785Z,11.40
2018-06-23T23:03:32.060Z,10.70
2018-06-23T23:06:07.179Z,10.83
2018-06-23T23:08:42.302Z,10.87
2018-06-23T23:11:17.410Z,11.20
2018-06-23T23:13:52.424Z,11.80
2018-06-23T23:16:27.140Z,11.10
2018-06-23T23:19:02.840Z,10.93
2018-06-23T23:21:37.670Z,11.30
2018-06-23T23:24:12.767Z,11.17
2018-06-23T23:26:48.172Z,11.07
2018-06-23T23:29:23.227Z,11.60
2018-06-23T23:31:58.331Z,11.47
2018-06-23T23:34:33.107Z,11.30
2018-06-23T23:37:08.299Z,11.40
2018-06-23T23:39:43.251Z,11.87
2018-06-23T23:42:18.366Z,12.30
2018-06-23T23:44:53.486Z,11.87
2018-06-23T23:47:28.572Z,11.53
2018-06-23T23:50:03.784Z,11.87
2018-06-23T23:52:38.606Z,12.50
2018-06-23T23:55:14.442Z,11.80
2018-06-23T23:57:49.589Z,11.83
